Lakes Entrance Composite, Australia
Current Conditions -  °F | °C
As of 1:00 AM on Monday 24 Nov 2014 (Local Time) from YCOM Reporting Station
Clear Clear  
Wind Chill: 64°   Ceiling: Unl
Heat Index: 64°   Visibility: 6mi
Dew Point: 52°   Wind: 3mph
Humidity: 64%   Direction: 320°NW
Pressure: 30.03"   Gusts: NA
Location:  37.87°S, 147.98°E
Report Text: YCOM 231400Z AUTO 32003KT 9999 // NCD 18/11 Q1017
Loading
Personal Weather Stations






























Interactive Weather Map New forecast layout! Learn more

10-Day Weather Forecast

Advertisements
Track Severe Weather on mobile